createdAt,value
2023-02-23T00:02:11.483Z,5.38
2023-02-23T00:07:13.095Z,5.40
2023-02-23T00:12:17.167Z,5.47
2023-02-23T00:17:18.961Z,5.48
2023-02-23T00:22:20.612Z,5.44
2023-02-23T00:27:22.117Z,5.51
2023-02-23T00:32:24.498Z,5.66
2023-02-23T00:37:26.326Z,6.00
2023-02-23T00:42:32.201Z,6.02
2023-02-23T00:47:36.440Z,6.05
2023-02-23T00:52:38.866Z,6.13
2023-02-23T00:57:40.414Z,6.14
2023-02-23T01:02:42.422Z,6.13
2023-02-23T01:07:47.221Z,6.32
2023-02-23T01:12:49.761Z,6.27
2023-02-23T01:17:51.363Z,6.35
2023-02-23T01:22:52.915Z,6.38
2023-02-23T01:27:54.832Z,6.32
2023-02-23T01:32:56.450Z,6.44
2023-02-23T01:37:57.975Z,6.43
2023-02-23T01:42:59.549Z,6.24
2023-02-23T01:48:04.195Z,6.38
2023-02-23T01:53:06.127Z,6.37
2023-02-23T01:58:15.342Z,6.36
2023-02-23T02:03:26.675Z,6.34
2023-02-23T02:08:32.587Z,6.27
2023-02-23T02:13:37.229Z,6.25
2023-02-23T02:18:51.029Z,6.23
2023-02-23T02:23:52.535Z,6.19
2023-02-23T02:29:06.144Z,6.14
2023-02-23T02:34:08.209Z,6.24
2023-02-23T02:39:23.069Z,6.27
2023-02-23T02:44:24.536Z,6.38
2023-02-23T02:49:29.953Z,6.32
2023-02-23T02:54:56.538Z,6.36
2023-02-23T03:00:16.682Z,6.36
2023-02-23T03:05:38.602Z,6.38
2023-02-23T03:11:08.061Z,6.51
2023-02-23T03:16:40.638Z,6.55
2023-02-23T03:22:08.837Z,6.42
2023-02-23T03:27:41.238Z,6.37
2023-02-23T03:33:18.392Z,6.56
2023-02-23T03:38:48.181Z,6.40
2023-02-23T03:44:14.224Z,6.34
2023-02-23T03:49:36.063Z,6.40
2023-02-23T03:54:59.469Z,6.34
2023-02-23T04:00:21.928Z,6.33
2023-02-23T04:05:42.270Z,6.32
2023-02-23T04:11:08.425Z,6.58
2023-02-23T04:16:10.638Z,6.66
2023-02-23T04:21:12.274Z,6.58
2023-02-23T04:26:13.781Z,6.34
2023-02-23T04:31:16.333Z,6.53
2023-02-23T04:36:18.013Z,6.60
2023-02-23T04:41:20.276Z,6.29
2023-02-23T04:46:21.943Z,6.23
2023-02-23T04:51:23.480Z,6.36
2023-02-23T04:56:25.245Z,6.41
2023-02-23T05:01:27.198Z,6.21
2023-02-23T05:06:28.763Z,6.01
2023-02-23T05:11:30.320Z,5.83
2023-02-23T05:16:32.203Z,5.95
2023-02-23T05:21:33.746Z,5.96
2023-02-23T05:26:35.272Z,6.10
2023-02-23T05:31:36.863Z,6.11
2023-02-23T05:36:38.515Z,5.81
2023-02-23T05:41:40.161Z,5.80
2023-02-23T05:46:41.648Z,5.72
2023-02-23T05:51:43.178Z,5.69
2023-02-23T05:56:44.711Z,5.75
2023-02-23T06:01:46.507Z,5.62
2023-02-23T06:06:48.001Z,5.96
2023-02-23T06:11:49.625Z,5.86
2023-02-23T06:16:51.267Z,5.73
2023-02-23T06:21:55.799Z,5.65
2023-02-23T06:26:57.343Z,5.85
2023-02-23T06:32:01.118Z,5.92
2023-02-23T06:37:02.788Z,5.96
2023-02-23T06:42:04.274Z,6.13
2023-02-23T06:47:06.193Z,6.28
2023-02-23T06:52:08.363Z,6.44
2023-02-23T06:57:10.140Z,6.35
2023-02-23T07:02:12.853Z,6.47
2023-02-23T07:07:14.519Z,6.49
2023-02-23T07:12:16.162Z,6.67
2023-02-23T07:17:17.843Z,6.75
2023-02-23T07:22:19.468Z,6.72
2023-02-23T07:27:20.982Z,6.68
2023-02-23T07:32:22.645Z,6.96
2023-02-23T07:37:24.257Z,6.99
2023-02-23T07:42:26.933Z,7.07
2023-02-23T07:47:31.406Z,7.08
2023-02-23T07:52:32.893Z,7.03
2023-02-23T07:57:34.685Z,7.38
2023-02-23T08:02:36.411Z,7.20
2023-02-23T08:07:37.979Z,7.44
2023-02-23T08:12:39.593Z,7.49
2023-02-23T08:17:41.301Z,7.44
2023-02-23T08:22:49.800Z,7.70
2023-02-23T08:27:54.542Z,7.79
2023-02-23T08:32:56.035Z,8.08
2023-02-23T08:37:58.016Z,8.16
2023-02-23T08:42:59.511Z,8.27
2023-02-23T08:48:01.016Z,8.28
2023-02-23T08:53:02.609Z,8.32
2023-02-23T08:58:04.724Z,8.44
2023-02-23T09:03:06.828Z,8.76
2023-02-23T09:08:08.332Z,8.78
2023-02-23T09:13:13.250Z,8.92
2023-02-23T09:18:14.964Z,8.93
2023-02-23T09:23:16.474Z,8.99
2023-02-23T09:28:19.928Z,8.97
2023-02-23T09:33:21.598Z,9.34
2023-02-23T09:38:24.520Z,9.48
2023-02-23T09:43:26.000Z,9.84
2023-02-23T09:48:28.567Z,10.23
2023-02-23T09:53:39.421Z,10.54
2023-02-23T09:58:41.006Z,11.03
2023-02-23T10:04:08.652Z,11.10
2023-02-23T10:09:14.544Z,11.35
2023-02-23T10:14:25.548Z,11.50
2023-02-23T10:19:36.421Z,11.60
2023-02-23T10:24:51.922Z,11.72
2023-02-23T10:29:58.579Z,11.99
2023-02-23T10:35:00.172Z,12.22
2023-02-23T10:40:02.382Z,12.20
2023-02-23T10:45:04.075Z,12.34
2023-02-23T10:50:06.646Z,12.57
2023-02-23T10:55:22.685Z,12.72
2023-02-23T11:00:32.633Z,12.69
2023-02-23T11:05:34.295Z,12.86
2023-02-23T11:10:35.914Z,13.17
2023-02-23T11:15:50.736Z,13.67
2023-02-23T11:20:52.828Z,13.80
2023-02-23T11:25:55.641Z,14.20
2023-02-23T11:31:01.629Z,14.25
2023-02-23T11:36:23.471Z,14.45
2023-02-23T11:41:25.030Z,14.74
2023-02-23T11:46:27.617Z,15.22
2023-02-23T11:51:31.115Z,15.72
2023-02-23T11:56:34.141Z,14.96
2023-02-23T12:01:35.989Z,15.40
2023-02-23T12:06:39.086Z,15.24
2023-02-23T12:11:42.439Z,15.72
2023-02-23T12:16:49.158Z,15.55
2023-02-23T12:21:58.340Z,15.74
2023-02-23T12:27:26.366Z,15.52
2023-02-23T12:32:30.984Z,14.80
2023-02-23T12:37:37.517Z,14.81
2023-02-23T12:43:02.006Z,14.83
2023-02-23T12:48:25.522Z,14.50
2023-02-23T12:53:36.164Z,14.51
2023-02-23T12:58:56.460Z,14.79
2023-02-23T13:04:22.574Z,14.45
2023-02-23T13:09:53.708Z,14.61
2023-02-23T13:15:15.759Z,14.24
2023-02-23T13:20:21.654Z,14.02
2023-02-23T13:25:43.491Z,13.70
2023-02-23T13:30:47.643Z,13.59
2023-02-23T13:35:50.103Z,13.56
2023-02-23T13:40:58.687Z,13.67
2023-02-23T13:46:03.057Z,13.60
2023-02-23T13:51:16.963Z,13.40
2023-02-23T13:56:22.040Z,13.18
2023-02-23T14:01:29.476Z,13.23
2023-02-23T14:06:32.667Z,12.98
2023-02-23T14:11:47.941Z,13.30
2023-02-23T14:17:09.129Z,13.21
2023-02-23T14:22:13.672Z,12.92
2023-02-23T14:27:39.758Z,12.85
2023-02-23T14:32:53.563Z,12.60
2023-02-23T14:37:56.490Z,12.54
2023-02-23T14:43:00.597Z,12.27
2023-02-23T14:48:05.308Z,12.06
2023-02-23T14:53:11.862Z,11.98
2023-02-23T14:58:27.294Z,11.82
2023-02-23T15:03:29.135Z,11.41
2023-02-23T15:08:31.266Z,11.31
2023-02-23T15:18:40.482Z,11.18
2023-02-23T15:23:45.350Z,11.28
2023-02-23T15:28:46.996Z,11.37
2023-02-23T15:33:50.744Z,11.34
2023-02-23T15:38:55.217Z,11.47
2023-02-23T15:44:14.481Z,11.36
2023-02-23T15:49:17.415Z,11.30
2023-02-23T15:54:24.299Z,11.25
2023-02-23T15:59:28.653Z,11.45
2023-02-23T16:04:36.819Z,11.28
2023-02-23T16:09:39.456Z,11.09
2023-02-23T16:14:41.040Z,11.03
2023-02-23T16:19:43.930Z,11.01
2023-02-23T16:24:49.598Z,11.04
2023-02-23T16:29:57.271Z,11.06
2023-02-23T16:35:18.677Z,10.96
2023-02-23T16:40:20.317Z,10.88
2023-02-23T16:45:21.924Z,10.91
2023-02-23T16:50:24.369Z,10.82
2023-02-23T16:55:28.510Z,10.76
2023-02-23T17:00:31.914Z,10.65
2023-02-23T17:05:33.809Z,10.61
2023-02-23T17:10:35.663Z,10.58
2023-02-23T17:15:39.256Z,10.54
2023-02-23T17:20:40.806Z,10.70
2023-02-23T17:25:42.442Z,10.56
2023-02-23T17:30:44.974Z,10.56
2023-02-23T17:35:46.881Z,10.40
2023-02-23T17:40:48.710Z,10.49
2023-02-23T17:45:50.298Z,10.43
2023-02-23T17:50:58.699Z,10.26
2023-02-23T17:56:00.525Z,10.43
2023-02-23T18:01:03.449Z,10.53
2023-02-23T18:06:06.561Z,10.43
2023-02-23T18:11:08.333Z,10.33
2023-02-23T18:16:10.590Z,10.02
2023-02-23T18:21:13.717Z,10.04
2023-02-23T18:26:17.156Z,10.18
2023-02-23T18:31:20.988Z,9.98
2023-02-23T18:36:27.919Z,9.94
2023-02-23T18:41:31.232Z,9.92
2023-02-23T18:46:33.004Z,9.82
2023-02-23T18:51:34.649Z,9.64
2023-02-23T18:56:36.309Z,9.61
2023-02-23T19:01:38.198Z,9.61
2023-02-23T19:06:41.791Z,9.49
2023-02-23T19:11:43.423Z,9.53
2023-02-23T19:16:45.431Z,9.58
2023-02-23T19:21:47.076Z,9.54
2023-02-23T19:26:48.814Z,9.53
2023-02-23T19:31:50.581Z,9.61
2023-02-23T19:36:52.253Z,9.56
2023-02-23T19:41:54.213Z,9.70
2023-02-23T19:46:57.002Z,9.71
2023-02-23T19:51:58.630Z,9.60
2023-02-23T19:57:00.166Z,9.68
2023-02-23T20:02:01.675Z,9.60
2023-02-23T20:07:03.258Z,9.48
2023-02-23T20:12:06.120Z,9.38
2023-02-23T20:17:08.996Z,9.45
2023-02-23T20:22:10.541Z,9.35
2023-02-23T20:27:12.079Z,9.43
2023-02-23T20:32:13.837Z,9.41
2023-02-23T20:37:15.438Z,9.23
2023-02-23T20:42:16.971Z,9.25
2023-02-23T20:47:18.486Z,9.21
2023-02-23T20:52:20.017Z,9.28
2023-02-23T20:57:21.580Z,9.19
2023-02-23T21:02:23.143Z,9.22
2023-02-23T21:07:26.563Z,9.27
2023-02-23T21:12:28.113Z,9.28
2023-02-23T21:17:29.605Z,9.15
2023-02-23T21:22:31.559Z,9.11
2023-02-23T21:27:33.143Z,9.14
2023-02-23T21:32:41.768Z,9.30
2023-02-23T21:37:43.774Z,9.23
2023-02-23T21:42:45.450Z,9.20
2023-02-23T21:47:48.289Z,9.03
2023-02-23T21:52:53.165Z,8.80
2023-02-23T21:57:54.915Z,8.69
2023-02-23T22:02:56.588Z,8.63
2023-02-23T22:07:58.236Z,8.61
2023-02-23T22:13:00.892Z,8.53
2023-02-23T22:18:02.416Z,8.51
2023-02-23T22:23:03.996Z,8.47
2023-02-23T22:28:09.011Z,8.39
2023-02-23T22:33:11.994Z,8.23
2023-02-23T22:38:14.970Z,8.25
2023-02-23T22:43:16.682Z,8.24
2023-02-23T22:48:18.447Z,8.52
2023-02-23T22:53:20.493Z,8.54
2023-02-23T22:58:26.469Z,8.34
2023-02-23T23:03:35.806Z,8.35
2023-02-23T23:08:39.863Z,8.44
2023-02-23T23:13:44.784Z,8.55
2023-02-23T23:18:49.552Z,8.62
2023-02-23T23:23:52.129Z,8.70
2023-02-23T23:28:55.068Z,8.67
2023-02-23T23:33:59.882Z,8.44
2023-02-23T23:39:02.172Z,8.39
2023-02-23T23:44:05.309Z,8.35
2023-02-23T23:49:11.782Z,8.07
2023-02-23T23:54:14.923Z,7.85
2023-02-23T23:59:20.322Z,7.91
